Kennebunkport, Maine
Current Conditions -  °F | °C
As of 8:35 PM on Thursday 27 Nov 2014 (Local Time) from KSFM Reporting Station
Overcast Overcast  
Wind Chill: 21°   Ceiling: 3100
Heat Index: 30°   Visibility: 10mi
Dew Point: 19°   Wind: 10mph
Humidity: 64%   Direction: 20°NNE
Pressure: 30.02"   Gusts: NA
Location:  43.36°N, 70.48°W
Report Text: KSFM 280135Z AUTO 02009KT 10SM OVC031 M01/M07 A3002 RMK AO1
Loading
Personal Weather Stations






























Interactive Weather Map New forecast layout! Learn more

10-Day Weather Forecast

Advertisements
Track Severe Weather on mobile